createdAt,value
2022-11-10T00:01:52.897Z,100332.94
2022-11-10T00:04:38.979Z,100338.94
2022-11-10T00:07:28.105Z,100337.53
2022-11-10T00:10:13.377Z,100335.34
2022-11-10T00:13:04.662Z,100335.13
2022-11-10T00:16:10.214Z,100332.72
2022-11-10T00:18:56.656Z,100329.13
2022-11-10T00:21:41.605Z,100326.53
2022-11-10T00:24:27.609Z,100323.31
2022-11-10T00:27:14.769Z,100319.69
2022-11-10T00:30:00.236Z,100326.19
2022-11-10T00:32:48.352Z,100328.19
2022-11-10T00:35:33.579Z,100327.19
2022-11-10T00:38:18.779Z,100329.78
2022-11-10T00:41:04.841Z,100328.53
2022-11-10T00:43:50.428Z,100325.16
2022-11-10T00:46:35.770Z,100328.34
2022-11-10T00:49:21.984Z,100328.59
2022-11-10T00:52:06.812Z,100339.41
2022-11-10T00:54:52.172Z,100343.41
2022-11-10T00:57:37.404Z,100335.84
2022-11-10T01:00:22.723Z,100340.66
2022-11-10T01:03:08.464Z,100337.00
2022-11-10T01:05:53.676Z,100360.22
2022-11-10T01:08:40.444Z,100355.03
2022-11-10T01:11:29.154Z,100360.28
2022-11-10T01:14:14.177Z,100366.84
2022-11-10T01:16:59.893Z,100367.88
2022-11-10T01:19:44.858Z,100369.06
2022-11-10T01:22:31.106Z,100366.72
2022-11-10T01:25:16.089Z,100376.94
2022-11-10T01:28:01.352Z,100387.31
2022-11-10T01:30:46.821Z,100387.31
2022-11-10T01:33:32.510Z,100396.91
2022-11-10T01:36:17.912Z,100392.69
2022-11-10T01:39:03.331Z,100389.72
2022-11-10T01:41:48.672Z,100393.28
2022-11-10T01:44:35.690Z,100389.91
2022-11-10T01:47:20.955Z,100395.09
2022-11-10T01:50:06.835Z,100390.84
2022-11-10T01:52:55.056Z,100398.22
2022-11-10T01:55:45.098Z,100385.78
2022-11-10T01:58:33.951Z,100386.19
2022-11-10T02:01:19.064Z,100384.56
2022-11-10T02:04:07.540Z,100390.91
2022-11-10T02:06:53.452Z,100393.69
2022-11-10T02:09:39.102Z,100395.22
2022-11-10T02:12:37.263Z,100395.03
2022-11-10T02:15:42.548Z,100401.19
2022-11-10T02:18:28.150Z,100398.31
2022-11-10T02:21:17.980Z,100395.50
2022-11-10T02:24:03.450Z,100401.06
2022-11-10T02:26:54.533Z,100393.78
2022-11-10T02:29:40.006Z,100398.16
2022-11-10T02:32:25.296Z,100391.97
2022-11-10T02:35:11.000Z,100399.84
2022-11-10T02:37:56.350Z,100403.03
2022-11-10T02:40:42.021Z,100407.03
2022-11-10T02:43:27.179Z,100408.47
2022-11-10T02:46:12.465Z,100411.91
2022-11-10T02:48:58.063Z,100408.66
2022-11-10T02:51:43.062Z,100420.59
2022-11-10T02:54:28.423Z,100423.38
2022-11-10T02:57:13.508Z,100418.97
2022-11-10T02:59:58.443Z,100423.19
2022-11-10T03:02:44.469Z,100434.19
2022-11-10T03:05:30.140Z,100432.94
2022-11-10T03:08:15.375Z,100447.91
2022-11-10T03:11:00.641Z,100450.13
2022-11-10T03:14:01.015Z,100451.72
2022-11-10T03:16:47.692Z,100453.69
2022-11-10T03:19:33.001Z,100452.19
2022-11-10T03:22:19.105Z,100460.72
2022-11-10T03:25:05.476Z,100459.09
2022-11-10T03:27:50.704Z,100463.69
2022-11-10T03:30:36.384Z,100474.66
2022-11-10T03:33:21.991Z,100476.13
2022-11-10T03:36:07.736Z,100479.84
2022-11-10T03:38:53.068Z,100484.63
2022-11-10T03:41:38.038Z,100478.81
2022-11-10T03:44:23.413Z,100481.69
2022-11-10T03:47:08.940Z,100481.63
2022-11-10T03:49:54.311Z,100472.84
2022-11-10T03:52:40.723Z,100478.84
2022-11-10T03:55:25.768Z,100482.28
2022-11-10T03:58:11.162Z,100481.47
2022-11-10T04:00:57.034Z,100481.88
2022-11-10T04:03:43.678Z,100481.81
2022-11-10T04:06:50.674Z,100485.31
2022-11-10T04:09:35.963Z,100491.66
2022-11-10T04:12:40.031Z,100487.91
2022-11-10T04:15:43.536Z,100484.06
2022-11-10T04:18:29.915Z,100491.03
2022-11-10T04:21:15.555Z,100491.75
2022-11-10T04:24:00.814Z,100499.88
2022-11-10T04:26:47.574Z,100498.03
2022-11-10T04:29:34.439Z,100499.41
2022-11-10T04:32:19.832Z,100507.50
2022-11-10T04:35:05.121Z,100516.69
2022-11-10T04:37:50.445Z,100516.69
2022-11-10T04:40:35.683Z,100511.00
2022-11-10T04:43:21.538Z,100519.91
2022-11-10T04:46:08.396Z,100519.28
2022-11-10T04:48:54.775Z,100520.50
2022-11-10T04:51:40.385Z,100523.56
2022-11-10T04:54:26.074Z,100521.75
2022-11-10T04:57:11.335Z,100534.34
2022-11-10T04:59:56.478Z,100535.88
2022-11-10T05:02:41.618Z,100539.91
2022-11-10T05:05:27.040Z,100562.53
2022-11-10T05:08:12.478Z,100567.78
2022-11-10T05:10:57.427Z,100560.50
2022-11-10T05:13:44.033Z,100559.03
2022-11-10T05:16:29.321Z,100561.63
2022-11-10T05:19:14.595Z,100568.44
2022-11-10T05:21:59.947Z,100560.81
2022-11-10T05:24:45.181Z,100573.75
2022-11-10T05:27:30.285Z,100573.13
2022-11-10T05:30:15.572Z,100570.75
2022-11-10T05:33:01.094Z,100574.66
2022-11-10T05:35:46.037Z,100572.88
2022-11-10T05:38:31.607Z,100573.88
2022-11-10T05:41:16.738Z,100583.44
2022-11-10T05:44:01.769Z,100580.97
2022-11-10T05:46:47.358Z,100579.28
2022-11-10T05:49:32.278Z,100585.50
2022-11-10T05:52:17.679Z,100578.25
2022-11-10T05:55:03.022Z,100580.22
2022-11-10T05:57:50.098Z,100578.97
2022-11-10T06:00:36.003Z,100575.84
2022-11-10T06:03:21.698Z,100589.09
2022-11-10T06:06:07.592Z,100591.94
2022-11-10T06:08:52.775Z,100603.22
2022-11-10T06:11:38.232Z,100611.25
2022-11-10T06:14:23.786Z,100614.16
2022-11-10T06:17:09.135Z,100613.44
2022-11-10T06:19:57.037Z,100607.22
2022-11-10T06:22:42.604Z,100589.41
2022-11-10T06:25:29.834Z,100600.72
2022-11-10T06:28:15.042Z,100608.50
2022-11-10T06:31:00.565Z,100608.50
2022-11-10T06:33:45.798Z,100614.91
2022-11-10T06:36:31.147Z,100616.88
2022-11-10T06:39:16.154Z,100618.50
2022-11-10T06:42:01.431Z,100638.25
2022-11-10T06:44:46.834Z,100655.25
2022-11-10T06:47:32.467Z,100659.63
2022-11-10T06:50:18.260Z,100671.13
2022-11-10T06:53:03.813Z,100679.72
2022-11-10T06:55:48.963Z,100678.69
2022-11-10T06:58:34.333Z,100687.38
2022-11-10T07:01:22.608Z,100692.16
2022-11-10T07:04:23.881Z,100693.03
2022-11-10T07:07:09.762Z,100695.53
2022-11-10T07:09:54.947Z,100701.66
2022-11-10T07:12:40.257Z,100702.78
2022-11-10T07:15:25.342Z,100698.50
2022-11-10T07:18:10.670Z,100705.38
2022-11-10T07:20:56.061Z,100711.75
2022-11-10T07:23:42.130Z,100713.63
2022-11-10T07:26:27.268Z,100726.94
2022-11-10T07:29:12.562Z,100730.25
2022-11-10T07:31:57.725Z,100734.53
2022-11-10T07:34:43.141Z,100733.19
2022-11-10T07:37:29.202Z,100737.66
2022-11-10T07:40:14.635Z,100741.22
2022-11-10T07:43:00.339Z,100746.06
2022-11-10T07:45:47.104Z,100745.50
2022-11-10T07:48:33.766Z,100749.53
2022-11-10T07:51:19.217Z,100758.75
2022-11-10T07:54:04.655Z,100761.97
2022-11-10T07:56:50.127Z,100771.28
2022-11-10T07:59:35.495Z,100774.53
2022-11-10T08:02:20.677Z,100780.72
2022-11-10T08:05:06.579Z,100776.50
2022-11-10T08:07:53.457Z,100779.19
2022-11-10T08:10:40.074Z,100774.91
2022-11-10T08:13:25.554Z,100789.22
2022-11-10T08:16:10.959Z,100783.53
2022-11-10T08:18:56.290Z,100788.63
2022-11-10T08:21:41.649Z,100787.94
2022-11-10T08:24:26.708Z,100776.81
2022-11-10T08:27:11.961Z,100780.53
2022-11-10T08:29:57.006Z,100796.25
2022-11-10T08:32:42.398Z,100789.72
2022-11-10T08:35:29.976Z,100802.41
2022-11-10T08:38:21.277Z,100802.06
2022-11-10T08:41:06.707Z,100806.38
2022-11-10T08:43:53.262Z,100810.47
2022-11-10T08:46:38.236Z,100810.69
2022-11-10T08:49:23.485Z,100825.53
2022-11-10T08:52:10.596Z,100827.53
2022-11-10T08:54:55.638Z,100836.00
2022-11-10T08:57:40.986Z,100826.75
2022-11-10T09:00:26.518Z,100851.28
2022-11-10T09:03:21.280Z,100842.06
2022-11-10T09:06:06.706Z,100851.72
2022-11-10T09:08:54.200Z,100860.78
2022-11-10T09:11:39.509Z,100856.22
2022-11-10T09:14:24.814Z,100863.47
2022-11-10T09:17:10.138Z,100866.31
2022-11-10T09:20:02.428Z,100869.47
2022-11-10T09:22:48.350Z,100879.34
2022-11-10T09:25:38.087Z,100885.56
2022-11-10T09:28:27.489Z,100887.19
2022-11-10T09:31:13.216Z,100900.22
2022-11-10T09:33:59.318Z,100896.22
2022-11-10T09:36:44.662Z,100904.03
2022-11-10T09:39:30.015Z,100908.84
2022-11-10T09:42:39.692Z,100911.28
2022-11-10T09:45:36.516Z,100913.50
2022-11-10T09:48:31.550Z,100917.72
2022-11-10T09:51:33.814Z,100924.13
2022-11-10T09:54:41.975Z,100932.13
2022-11-10T09:57:28.141Z,100936.97
2022-11-10T10:00:18.077Z,100938.56
2022-11-10T10:03:05.245Z,100933.69
2022-11-10T10:06:11.044Z,100932.78
2022-11-10T10:09:15.557Z,100936.56
2022-11-10T10:12:35.475Z,100933.22
2022-11-10T10:15:58.119Z,100933.38
2022-11-10T10:19:01.474Z,100936.81
2022-11-10T10:22:17.930Z,100943.78
2022-11-10T10:25:13.116Z,100948.19
2022-11-10T10:28:13.183Z,100950.16
2022-11-10T10:31:19.503Z,100951.38
2022-11-10T10:34:05.234Z,100954.06
2022-11-10T10:36:50.454Z,100961.91
2022-11-10T10:39:44.049Z,100960.66
2022-11-10T10:42:31.388Z,100967.09
2022-11-10T10:45:43.117Z,100963.84
2022-11-10T10:48:30.607Z,100966.75
2022-11-10T10:51:29.912Z,100974.97
2022-11-10T10:54:30.330Z,100976.41
2022-11-10T10:57:25.788Z,100971.00
2022-11-10T11:00:24.253Z,100978.00
2022-11-10T11:03:36.461Z,100976.72
2022-11-10T11:06:27.854Z,100975.22
2022-11-10T11:09:17.278Z,100976.59
2022-11-10T11:12:08.877Z,100981.44
2022-11-10T11:15:21.778Z,100982.63
2022-11-10T11:18:18.447Z,100982.84
2022-11-10T11:21:15.633Z,100992.56
2022-11-10T11:24:13.381Z,100991.94
2022-11-10T11:27:46.711Z,101011.59
2022-11-10T11:31:10.375Z,100995.22
2022-11-10T11:34:31.633Z,100993.09
2022-11-10T11:37:40.380Z,101010.63
2022-11-10T11:40:44.504Z,101005.31
2022-11-10T11:44:01.894Z,101007.09
2022-11-10T11:47:07.974Z,101010.25
2022-11-10T11:50:19.863Z,101003.50
2022-11-10T11:53:19.459Z,101011.97
2022-11-10T11:56:22.834Z,101011.16
2022-11-10T11:59:28.753Z,101008.84
2022-11-10T12:02:14.122Z,101014.09
2022-11-10T12:05:24.155Z,101021.44
2022-11-10T12:08:12.245Z,101012.88
2022-11-10T12:11:09.525Z,101024.41
2022-11-10T12:14:10.550Z,101029.81
2022-11-10T12:17:08.849Z,101034.56
2022-11-10T12:20:06.352Z,101032.22
2022-11-10T12:22:59.871Z,101017.84
2022-11-10T12:25:45.002Z,101031.28
2022-11-10T12:28:41.525Z,101034.47
2022-11-10T12:31:29.935Z,101028.03
2022-11-10T12:34:36.979Z,101037.06
2022-11-10T12:37:35.948Z,101032.06
2022-11-10T12:40:22.016Z,101038.97
2022-11-10T12:43:14.150Z,101039.75
2022-11-10T12:46:03.490Z,101040.16
2022-11-10T12:49:23.936Z,101036.41
2022-11-10T12:52:19.495Z,101031.47
2022-11-10T12:55:05.194Z,101037.34
2022-11-10T12:57:50.545Z,101037.13
2022-11-10T13:00:56.754Z,101036.69
2022-11-10T13:03:55.665Z,101039.31
2022-11-10T13:06:51.757Z,101047.00
2022-11-10T13:09:41.285Z,101041.63
2022-11-10T13:12:26.653Z,101041.88
2022-11-10T13:15:50.748Z,101047.25
2022-11-10T13:18:35.723Z,101043.47
2022-11-10T13:21:53.048Z,101057.03
2022-11-10T13:24:43.173Z,101060.50
2022-11-10T13:27:41.667Z,101066.88
2022-11-10T13:30:48.771Z,101073.31
2022-11-10T13:33:37.637Z,101076.00
2022-11-10T13:36:44.334Z,101075.53
2022-11-10T13:39:34.180Z,101074.22
2022-11-10T13:42:24.086Z,101072.41
2022-11-10T13:45:28.046Z,101081.47
2022-11-10T13:48:35.346Z,101078.72
2022-11-10T13:51:35.999Z,101085.94
2022-11-10T13:54:29.658Z,101089.56
2022-11-10T13:57:37.450Z,101095.16
2022-11-10T14:00:28.205Z,101091.97
2022-11-10T14:03:46.046Z,101099.13
2022-11-10T14:06:48.537Z,101097.34
2022-11-10T14:09:42.987Z,101103.53
2022-11-10T14:12:48.338Z,101116.69
2022-11-10T14:15:48.309Z,101119.44
2022-11-10T14:18:41.633Z,101121.63
2022-11-10T14:21:45.514Z,101116.53
2022-11-10T14:24:45.675Z,101115.94
2022-11-10T14:27:34.811Z,101121.47
2022-11-10T14:30:21.463Z,101113.16
2022-11-10T14:33:10.909Z,101126.91
2022-11-10T14:35:58.454Z,101128.81
2022-11-10T14:38:45.113Z,101123.91
2022-11-10T14:41:30.335Z,101130.44
2022-11-10T14:44:25.605Z,101129.56
2022-11-10T14:47:33.684Z,101135.56
2022-11-10T14:50:22.971Z,101147.16
2022-11-10T14:53:16.540Z,101136.69
2022-11-10T14:56:03.801Z,101136.19
2022-11-10T14:58:50.493Z,101138.72
2022-11-10T15:01:48.103Z,101152.25
2022-11-10T15:04:34.261Z,101146.13
2022-11-10T15:07:21.788Z,101159.06
2022-11-10T15:10:16.211Z,101148.91
2022-11-10T15:13:11.629Z,101153.00
2022-11-10T15:16:21.376Z,101161.56
2022-11-10T15:19:32.459Z,101165.03
2022-11-10T15:22:20.043Z,101177.84
2022-11-10T15:25:16.532Z,101190.75
2022-11-10T15:28:14.031Z,101197.09
2022-11-10T15:31:11.671Z,101207.19
2022-11-10T15:34:02.462Z,101204.59
2022-11-10T15:36:47.435Z,101199.13
2022-11-10T15:39:32.962Z,101193.59
2022-11-10T15:42:21.249Z,101198.19
2022-11-10T15:45:06.744Z,101202.75
2022-11-10T15:47:52.404Z,101209.22
2022-11-10T15:50:38.037Z,101213.81
2022-11-10T15:53:28.445Z,101213.34
2022-11-10T15:56:22.294Z,101220.00
2022-11-10T15:59:09.814Z,101220.63
2022-11-10T16:01:55.289Z,101224.19
2022-11-10T16:04:44.121Z,101234.94
2022-11-10T16:07:29.875Z,101236.56
2022-11-10T16:10:15.611Z,101239.31
2022-11-10T16:13:00.987Z,101240.13
2022-11-10T16:15:46.420Z,101249.88
2022-11-10T16:18:31.674Z,101247.47
2022-11-10T16:21:22.666Z,101247.78
2022-11-10T16:24:08.134Z,101261.56
2022-11-10T16:26:53.708Z,101263.53
2022-11-10T16:29:39.264Z,101261.91
2022-11-10T16:32:24.675Z,101267.47
2022-11-10T16:35:14.158Z,101263.56
2022-11-10T16:37:59.258Z,101266.16
2022-11-10T16:40:45.190Z,101268.94
2022-11-10T16:43:31.708Z,101273.66
2022-11-10T16:46:19.761Z,101276.78
2022-11-10T16:49:06.884Z,101293.47
2022-11-10T16:51:52.583Z,101293.63
2022-11-10T16:54:37.994Z,101306.16
2022-11-10T16:57:23.291Z,101314.91
2022-11-10T17:00:09.226Z,101315.22
2022-11-10T17:03:11.173Z,101323.38
2022-11-10T17:05:56.164Z,101331.16
2022-11-10T17:08:42.342Z,101326.13
2022-11-10T17:11:28.064Z,101335.69
2022-11-10T17:14:14.758Z,101334.72
2022-11-10T17:17:00.765Z,101343.13
2022-11-10T17:19:47.496Z,101347.34
2022-11-10T17:22:36.407Z,101355.50
2022-11-10T17:25:28.782Z,101353.38
2022-11-10T17:28:15.791Z,101356.13
2022-11-10T17:31:01.067Z,101364.88
2022-11-10T17:33:46.375Z,101365.88
2022-11-10T17:36:34.353Z,101370.41
2022-11-10T17:39:20.021Z,101378.34
2022-11-10T17:42:05.247Z,101374.13
2022-11-10T17:44:50.276Z,101372.69
2022-11-10T17:47:35.614Z,101368.63
2022-11-10T17:50:22.946Z,101376.56
2022-11-10T17:53:28.591Z,101378.47
2022-11-10T17:56:14.360Z,101384.03
2022-11-10T17:58:59.527Z,101381.44
2022-11-10T18:01:44.829Z,101380.09
2022-11-10T18:04:30.689Z,101393.78
2022-11-10T18:07:16.425Z,101381.91
2022-11-10T18:10:01.971Z,101389.88
2022-11-10T18:12:47.355Z,101398.63
2022-11-10T18:15:32.691Z,101398.63
2022-11-10T18:18:18.655Z,101393.44
2022-11-10T18:21:04.568Z,101403.47
2022-11-10T18:23:49.965Z,101401.69
2022-11-10T18:26:35.335Z,101412.88
2022-11-10T18:29:20.536Z,101412.59
2022-11-10T18:32:06.177Z,101413.56
2022-11-10T18:34:51.425Z,101420.38
2022-11-10T18:37:39.235Z,101425.56
2022-11-10T18:40:25.362Z,101422.00
2022-11-10T18:43:10.808Z,101415.19
2022-11-10T18:45:56.150Z,101419.72
2022-11-10T18:48:41.359Z,101427.50
2022-11-10T18:51:26.601Z,101432.69
2022-11-10T18:54:11.793Z,101430.22
2022-11-10T18:56:56.992Z,101433.78
2022-11-10T18:59:42.671Z,101436.56
2022-11-10T19:02:27.811Z,101440.13
2022-11-10T19:05:13.174Z,101443.69
2022-11-10T19:07:58.841Z,101446.47
2022-11-10T19:10:44.027Z,101433.78
2022-11-10T19:13:29.365Z,101440.13
2022-11-10T19:16:17.513Z,101437.38
2022-11-10T19:19:02.954Z,101438.47
2022-11-10T19:21:48.489Z,101439.59
2022-11-10T19:24:42.477Z,101447.53
2022-11-10T19:27:39.268Z,101442.69
2022-11-10T19:30:26.728Z,101444.63
2022-11-10T19:33:12.101Z,101450.09
2022-11-10T19:36:01.413Z,101455.63
2022-11-10T19:38:47.440Z,101464.00
2022-11-10T19:41:32.818Z,101462.53
2022-11-10T19:44:18.201Z,101470.31
2022-11-10T19:47:03.562Z,101463.66
2022-11-10T19:49:48.960Z,101466.41
2022-11-10T19:52:34.131Z,101473.22
2022-11-10T19:55:19.350Z,101474.03
2022-11-10T19:58:04.645Z,101473.38
2022-11-10T20:00:50.113Z,101480.34
2022-11-10T20:03:35.934Z,101489.13
2022-11-10T20:06:23.207Z,101484.06
2022-11-10T20:09:08.374Z,101491.53
2022-11-10T20:11:53.785Z,101486.34
2022-11-10T20:14:38.936Z,101502.09
2022-11-10T20:17:24.161Z,101494.31
2022-11-10T20:20:10.176Z,101500.56
2022-11-10T20:22:55.298Z,101499.75
2022-11-10T20:25:40.899Z,101495.69
2022-11-10T20:28:25.869Z,101491.47
2022-11-10T20:31:16.316Z,101492.63
2022-11-10T20:34:01.261Z,101493.06
2022-11-10T20:36:46.805Z,101507.38
2022-11-10T20:39:32.401Z,101511.06
2022-11-10T20:45:26.533Z,101510.13
2022-11-10T20:48:11.581Z,101524.56
2022-11-10T20:50:57.334Z,101530.38
2022-11-10T20:53:42.741Z,101528.78
2022-11-10T20:56:29.972Z,101526.19
2022-11-10T20:59:15.426Z,101532.97
2022-11-10T21:02:00.799Z,101540.44
2022-11-10T21:04:47.359Z,101545.94
2022-11-10T21:07:32.766Z,101543.31
2022-11-10T21:10:18.014Z,101537.50
2022-11-10T21:13:03.376Z,101539.94
2022-11-10T21:15:58.234Z,101542.31
2022-11-10T21:18:43.493Z,101547.34
2022-11-10T21:21:34.637Z,101560.44
2022-11-10T21:24:20.390Z,101558.19
2022-11-10T21:27:05.513Z,101561.09
2022-11-10T21:29:50.906Z,101571.31
2022-11-10T21:32:36.272Z,101573.91
2022-11-10T21:35:21.786Z,101566.28
2022-11-10T21:38:06.926Z,101562.06
2022-11-10T21:40:52.242Z,101564.66
2022-11-10T21:43:38.829Z,101572.41
2022-11-10T21:46:24.307Z,101584.25
2022-11-10T21:49:09.568Z,101569.53
2022-11-10T21:51:55.146Z,101568.06
2022-11-10T21:54:40.202Z,101572.53
2022-11-10T21:57:25.777Z,101578.34
2022-11-10T22:00:12.260Z,101579.75
2022-11-10T22:03:02.171Z,101590.13
2022-11-10T22:05:47.327Z,101577.53
2022-11-10T22:08:34.118Z,101580.28
2022-11-10T22:11:39.814Z,101584.66
2022-11-10T22:14:43.641Z,101581.38
2022-11-10T22:17:47.973Z,101592.06
2022-11-10T22:20:33.470Z,101589.13
2022-11-10T22:23:18.962Z,101587.50
2022-11-10T22:26:03.977Z,101595.91
2022-11-10T22:28:49.418Z,101589.13
2022-11-10T22:31:34.544Z,101589.28
2022-11-10T22:34:20.641Z,101586.00
2022-11-10T22:37:05.771Z,101588.47
2022-11-10T22:40:09.424Z,101590.50
2022-11-10T22:43:12.839Z,101584.84
2022-11-10T22:45:58.295Z,101580.22
2022-11-10T22:48:43.629Z,101582.94
2022-11-10T22:51:30.749Z,101594.44
2022-11-10T22:54:18.670Z,101593.63
2022-11-10T22:57:03.966Z,101587.31
2022-11-10T22:59:49.391Z,101589.13
2022-11-10T23:02:54.778Z,101586.69
2022-11-10T23:05:40.470Z,101584.25
2022-11-10T23:08:25.841Z,101583.03
2022-11-10T23:11:19.415Z,101579.94
2022-11-10T23:14:04.785Z,101580.91
2022-11-10T23:16:50.014Z,101586.22
2022-11-10T23:19:35.529Z,101585.56
2022-11-10T23:22:20.966Z,101592.66
2022-11-10T23:25:06.674Z,101594.56
2022-11-10T23:27:51.801Z,101591.84
2022-11-10T23:30:37.263Z,101591.84
2022-11-10T23:33:22.806Z,101591.69
2022-11-10T23:36:10.229Z,101589.09
2022-11-10T23:38:55.782Z,101581.78
2022-11-10T23:41:40.714Z,101584.50
2022-11-10T23:44:26.025Z,101589.16
2022-11-10T23:50:20.697Z,101590.56
2022-11-10T23:53:05.972Z,101579.56
2022-11-10T23:56:02.987Z,101563.75
2022-11-10T23:58:48.037Z,101563.63
